sensor_id;sensor_type;location;lat;lon;timestamp;pressure;altitude;pressure_sealevel;temperature;humidity
73101;BME280;61288;53.446;-2.266;2022-11-15T00:02:07;99836.22;;;8.28;88.61
73101;BME280;61288;53.446;-2.266;2022-11-15T00:04:32;99832.03;;;8.26;89.44
73101;BME280;61288;53.446;-2.266;2022-11-15T00:06:58;99828.75;;;8.22;88.65
73101;BME280;61288;53.446;-2.266;2022-11-15T00:09:24;99825.56;;;8.17;88.97
73101;BME280;61288;53.446;-2.266;2022-11-15T00:11:51;99829.09;;;8.14;89.33
73101;BME280;61288;53.446;-2.266;2022-11-15T00:14:16;99814.72;;;8.08;88.10
73101;BME280;61288;53.446;-2.266;2022-11-15T00:16:42;99815.75;;;8.04;88.22
73101;BME280;61288;53.446;-2.266;2022-11-15T00:19:09;99806.47;;;8.00;88.27
73101;BME280;61288;53.446;-2.266;2022-11-15T00:21:34;99803.22;;;7.97;88.13
73101;BME280;61288;53.446;-2.266;2022-11-15T00:23:59;99793.91;;;7.92;88.61
73101;BME280;61288;53.446;-2.266;2022-11-15T00:26:26;99785.41;;;7.90;88.27
73101;BME280;61288;53.446;-2.266;2022-11-15T00:28:52;99788.06;;;7.89;88.33
73101;BME280;61288;53.446;-2.266;2022-11-15T00:31:18;99789.88;;;7.87;88.69
73101;BME280;61288;53.446;-2.266;2022-11-15T00:33:44;99784.88;;;7.84;88.89
73101;BME280;61288;53.446;-2.266;2022-11-15T00:36:10;99776.41;;;7.80;88.83
73101;BME280;61288;53.446;-2.266;2022-11-15T00:38:38;99768.81;;;7.77;87.86
73101;BME280;61288;53.446;-2.266;2022-11-15T00:41:06;99768.81;;;7.77;88.17
73101;BME280;61288;53.446;-2.266;2022-11-15T00:43:33;99761.91;;;7.77;87.87
73101;BME280;61288;53.446;-2.266;2022-11-15T00:45:59;99750.75;;;7.77;86.86
73101;BME280;61288;53.446;-2.266;2022-11-15T00:48:24;99743.03;;;7.77;86.44
73101;BME280;61288;53.446;-2.266;2022-11-15T00:50:50;99736.25;;;7.74;86.52
73101;BME280;61288;53.446;-2.266;2022-11-15T00:53:16;99740.63;;;7.72;86.37
73101;BME280;61288;53.446;-2.266;2022-11-15T00:55:42;99732.00;;;7.73;87.34
73101;BME280;61288;53.446;-2.266;2022-11-15T00:58:10;99717.44;;;7.72;86.60
73101;BME280;61288;53.446;-2.266;2022-11-15T01:00:35;99714.84;;;7.72;85.89
73101;BME280;61288;53.446;-2.266;2022-11-15T01:03:01;99705.44;;;7.71;86.15
73101;BME280;61288;53.446;-2.266;2022-11-15T01:05:27;99714.84;;;7.72;86.62
73101;BME280;61288;53.446;-2.266;2022-11-15T01:07:54;99693.41;;;7.72;86.33
73101;BME280;61288;53.446;-2.266;2022-11-15T01:10:20;99687.41;;;7.71;86.15
73101;BME280;61288;53.446;-2.266;2022-11-15T01:12:46;99686.63;;;7.69;85.60
73101;BME280;61288;53.446;-2.266;2022-11-15T01:15:12;99692.56;;;7.71;85.73
73101;BME280;61288;53.446;-2.266;2022-11-15T01:17:38;99683.84;;;7.74;85.01
73101;BME280;61288;53.446;-2.266;2022-11-15T01:20:04;99683.72;;;7.77;85.01
73101;BME280;61288;53.446;-2.266;2022-11-15T01:22:30;99673.19;;;7.82;84.57
73101;BME280;61288;53.446;-2.266;2022-11-15T01:24:56;99665.38;;;7.83;84.93
73101;BME280;61288;53.446;-2.266;2022-11-15T01:27:21;99668.56;;;7.88;84.36
73101;BME280;61288;53.446;-2.266;2022-11-15T01:29:47;99666.72;;;7.92;84.72
73101;BME280;61288;53.446;-2.266;2022-11-15T01:32:12;99659.72;;;7.94;84.47
73101;BME280;61288;53.446;-2.266;2022-11-15T01:34:38;99659.59;;;7.97;84.43
73101;BME280;61288;53.446;-2.266;2022-11-15T01:37:04;99652.59;;;7.99;84.41
73101;BME280;61288;53.446;-2.266;2022-11-15T01:39:30;99641.09;;;8.06;83.46
73101;BME280;61288;53.446;-2.266;2022-11-15T01:41:56;99632.28;;;8.10;83.26
73101;BME280;61288;53.446;-2.266;2022-11-15T01:44:51;99626.78;;;8.18;83.04
73101;BME280;61288;53.446;-2.266;2022-11-15T01:47:33;99620.63;;;8.21;82.99
73101;BME280;61288;53.446;-2.266;2022-11-15T01:50:12;99616.44;;;8.18;84.02
73101;BME280;61288;53.446;-2.266;2022-11-15T01:52:41;99601.72;;;8.20;83.42
73101;BME280;61288;53.446;-2.266;2022-11-15T01:57:39;99599.00;;;8.23;83.60
73101;BME280;61288;53.446;-2.266;2022-11-15T02:00:07;99596.34;;;8.25;83.66
73101;BME280;61288;53.446;-2.266;2022-11-15T02:02:33;99586.84;;;8.26;83.30
73101;BME280;61288;53.446;-2.266;2022-11-15T02:04:59;99580.72;;;8.28;83.55
73101;BME280;61288;53.446;-2.266;2022-11-15T02:07:25;99568.41;;;8.33;83.31
73101;BME280;61288;53.446;-2.266;2022-11-15T02:09:51;99549.44;;;8.34;83.20
73101;BME280;61288;53.446;-2.266;2022-11-15T02:12:20;99549.38;;;8.36;83.57
73101;BME280;61288;53.446;-2.266;2022-11-15T02:14:51;99544.13;;;8.37;83.74
73101;BME280;61288;53.446;-2.266;2022-11-15T02:17:28;99546.69;;;8.37;84.26
73101;BME280;61288;53.446;-2.266;2022-11-15T02:26:13;99521.06;;;8.52;83.47
73101;BME280;61288;53.446;-2.266;2022-11-15T02:39:38;99492.88;;;8.65;83.45
73101;BME280;61288;53.446;-2.266;2022-11-15T02:42:28;99484.97;;;8.68;83.65
73101;BME280;61288;53.446;-2.266;2022-11-15T02:45:20;99480.38;;;8.73;83.14
73101;BME280;61288;53.446;-2.266;2022-11-15T02:47:50;99475.06;;;8.76;82.92
73101;BME280;61288;53.446;-2.266;2022-11-15T02:50:20;99469.66;;;8.81;82.85
73101;BME280;61288;53.446;-2.266;2022-11-15T02:52:48;99457.50;;;8.83;82.88
73101;BME280;61288;53.446;-2.266;2022-11-15T02:55:28;99440.91;;;8.87;82.84
73101;BME280;61288;53.446;-2.266;2022-11-15T03:06:30;99436.16;;;8.95;82.81
73101;BME280;61288;53.446;-2.266;2022-11-15T03:09:34;99429.09;;;8.99;82.68
73101;BME280;61288;53.446;-2.266;2022-11-15T03:12:07;99422.25;;;8.98;82.91
73101;BME280;61288;53.446;-2.266;2022-11-15T03:15:06;99415.31;;;8.99;83.18
73101;BME280;61288;53.446;-2.266;2022-11-15T03:17:41;99412.75;;;8.99;83.10
73101;BME280;61288;53.446;-2.266;2022-11-15T03:20:08;99398.91;;;9.00;82.90
73101;BME280;61288;53.446;-2.266;2022-11-15T03:22:43;99395.41;;;9.01;82.96
73101;BME280;61288;53.446;-2.266;2022-11-15T03:25:14;99396.31;;;9.00;82.61
73101;BME280;61288;53.446;-2.266;2022-11-15T03:27:47;99407.41;;;9.02;82.55
73101;BME280;61288;53.446;-2.266;2022-11-15T03:30:16;99401.47;;;9.00;83.31
73101;BME280;61288;53.446;-2.266;2022-11-15T03:32:46;99388.66;;;8.98;83.26
73101;BME280;61288;53.446;-2.266;2022-11-15T03:35:21;99391.41;;;8.95;83.13
73101;BME280;61288;53.446;-2.266;2022-11-15T03:37:52;99381.97;;;8.94;83.12
73101;BME280;61288;53.446;-2.266;2022-11-15T03:40:31;99383.81;;;8.92;83.12
73101;BME280;61288;53.446;-2.266;2022-11-15T03:43:09;99382.16;;;8.91;83.19
73101;BME280;61288;53.446;-2.266;2022-11-15T03:46:01;99363.31;;;8.89;83.38
73101;BME280;61288;53.446;-2.266;2022-11-15T03:48:34;99368.50;;;8.89;83.31
73101;BME280;61288;53.446;-2.266;2022-11-15T03:51:04;99366.00;;;8.87;83.50
73101;BME280;61288;53.446;-2.266;2022-11-15T03:53:32;99351.44;;;8.86;84.15
73101;BME280;61288;53.446;-2.266;2022-11-15T03:55:59;99344.59;;;8.85;84.66
73101;BME280;61288;53.446;-2.266;2022-11-15T03:58:24;99350.75;;;8.82;84.91
73101;BME280;61288;53.446;-2.266;2022-11-15T04:00:52;99351.59;;;8.83;84.96
73101;BME280;61288;53.446;-2.266;2022-11-15T04:03:21;99346.25;;;8.86;85.14
73101;BME280;61288;53.446;-2.266;2022-11-15T04:05:46;99343.56;;;8.88;85.74
73101;BME280;61288;53.446;-2.266;2022-11-15T04:08:12;99338.34;;;8.89;85.79
73101;BME280;61288;53.446;-2.266;2022-11-15T04:10:37;99325.31;;;8.91;85.81
73101;BME280;61288;53.446;-2.266;2022-11-15T04:13:03;99328.66;;;8.93;86.32
73101;BME280;61288;53.446;-2.266;2022-11-15T04:15:28;99326.84;;;8.95;86.56
73101;BME280;61288;53.446;-2.266;2022-11-15T04:17:56;99324.16;;;8.96;86.91
73101;BME280;61288;53.446;-2.266;2022-11-15T04:20:29;99324.91;;;8.99;86.97
73101;BME280;61288;53.446;-2.266;2022-11-15T04:26:09;99300.53;;;9.03;87.52
73101;BME280;61288;53.446;-2.266;2022-11-15T04:28:35;99300.53;;;9.03;88.00
73101;BME280;61288;53.446;-2.266;2022-11-15T04:31:21;99307.56;;;9.01;88.40
73101;BME280;61288;53.446;-2.266;2022-11-15T04:33:46;99295.56;;;9.00;88.26
73101;BME280;61288;53.446;-2.266;2022-11-15T04:36:12;99298.13;;;9.00;88.63
73101;BME280;61288;53.446;-2.266;2022-11-15T04:38:55;99287.97;;;8.96;89.33
73101;BME280;61288;53.446;-2.266;2022-11-15T04:41:21;99284.66;;;8.94;89.97
73101;BME280;61288;53.446;-2.266;2022-11-15T04:43:47;99275.31;;;8.92;90.32
73101;BME280;61288;53.446;-2.266;2022-11-15T04:46:12;99278.06;;;8.89;90.67
73101;BME280;61288;53.446;-2.266;2022-11-15T04:48:38;99277.25;;;8.88;91.24
73101;BME280;61288;53.446;-2.266;2022-11-15T04:51:06;99279.00;;;8.88;91.07
73101;BME280;61288;53.446;-2.266;2022-11-15T04:53:33;99277.34;;;8.87;91.82
73101;BME280;61288;53.446;-2.266;2022-11-15T04:55:58;99265.44;;;8.84;92.21
73101;BME280;61288;53.446;-2.266;2022-11-15T04:58:24;99266.53;;;8.80;93.06
73101;BME280;61288;53.446;-2.266;2022-11-15T05:00:49;99265.69;;;8.79;93.59
73101;BME280;61288;53.446;-2.266;2022-11-15T05:03:15;99267.59;;;8.76;93.90
73101;BME280;61288;53.446;-2.266;2022-11-15T05:05:59;99254.78;;;8.74;94.06
73101;BME280;61288;53.446;-2.266;2022-11-15T05:08:25;99252.28;;;8.73;95.30
73101;BME280;61288;53.446;-2.266;2022-11-15T05:10:52;99248.94;;;8.71;95.05
73101;BME280;61288;53.446;-2.266;2022-11-15T05:13:18;99250.78;;;8.69;96.25
73101;BME280;61288;53.446;-2.266;2022-11-15T05:15:43;99238.78;;;8.67;96.33
73101;BME280;61288;53.446;-2.266;2022-11-15T05:18:09;99224.31;;;8.65;97.10
73101;BME280;61288;53.446;-2.266;2022-11-15T05:20:38;99226.06;;;8.64;97.20
73101;BME280;61288;53.446;-2.266;2022-11-15T05:23:03;99215.66;;;8.66;97.25
73101;BME280;61288;53.446;-2.266;2022-11-15T05:25:29;99210.50;;;8.66;97.29
73101;BME280;61288;53.446;-2.266;2022-11-15T05:27:54;99205.16;;;8.69;97.17
73101;BME280;61288;53.446;-2.266;2022-11-15T05:32:55;99188.56;;;8.73;96.99
73101;BME280;61288;53.446;-2.266;2022-11-15T05:35:31;99188.47;;;8.75;96.72
73101;BME280;61288;53.446;-2.266;2022-11-15T05:37:59;99187.47;;;8.77;96.91
73101;BME280;61288;53.446;-2.266;2022-11-15T05:40:26;99186.38;;;8.81;96.60
73101;BME280;61288;53.446;-2.266;2022-11-15T05:42:52;99175.97;;;8.83;96.64
73101;BME280;61288;53.446;-2.266;2022-11-15T05:45:18;99168.94;;;8.85;96.79
73101;BME280;61288;53.446;-2.266;2022-11-15T05:47:44;99162.13;;;8.84;96.92
73101;BME280;61288;53.446;-2.266;2022-11-15T05:50:15;99153.47;;;8.85;96.96
73101;BME280;61288;53.446;-2.266;2022-11-15T05:52:44;99152.53;;;8.86;96.94
73101;BME280;61288;53.446;-2.266;2022-11-15T05:55:11;99145.59;;;8.87;97.01
73101;BME280;61288;53.446;-2.266;2022-11-15T05:57:38;99130.03;;;8.88;96.91
73101;BME280;61288;53.446;-2.266;2022-11-15T06:00:05;99139.44;;;8.89;96.91
73101;BME280;61288;53.446;-2.266;2022-11-15T06:02:31;99132.44;;;8.91;96.65
73101;BME280;61288;53.446;-2.266;2022-11-15T06:04:56;99120.25;;;8.93;96.77
73101;BME280;61288;53.446;-2.266;2022-11-15T06:07:22;99115.00;;;8.95;96.61
73101;BME280;61288;53.446;-2.266;2022-11-15T06:09:47;99107.25;;;8.95;96.64
73101;BME280;61288;53.446;-2.266;2022-11-15T06:12:13;99099.31;;;8.98;96.24
73101;BME280;61288;53.446;-2.266;2022-11-15T06:14:38;99097.47;;;9.00;96.30
73101;BME280;61288;53.446;-2.266;2022-11-15T06:17:04;99090.34;;;9.04;96.05
73101;BME280;61288;53.446;-2.266;2022-11-15T06:19:29;99097.47;;;9.15;94.43
73101;BME280;61288;53.446;-2.266;2022-11-15T06:22:01;99088.59;;;9.19;94.86
73101;BME280;61288;53.446;-2.266;2022-11-15T06:24:26;99085.00;;;9.21;94.52
73101;BME280;61288;53.446;-2.266;2022-11-15T06:26:52;99087.78;;;9.18;95.34
73101;BME280;61288;53.446;-2.266;2022-11-15T06:29:17;99080.09;;;9.17;94.75
73101;BME280;61288;53.446;-2.266;2022-11-15T06:31:42;99070.44;;;9.20;94.61
73101;BME280;61288;53.446;-2.266;2022-11-15T06:34:08;99064.13;;;9.24;94.59
73101;BME280;61288;53.446;-2.266;2022-11-15T06:36:35;99064.78;;;9.28;94.35
73101;BME280;61288;53.446;-2.266;2022-11-15T06:39:02;99072.06;;;9.36;93.91
73101;BME280;61288;53.446;-2.266;2022-11-15T06:41:28;99061.31;;;9.42;93.46
73101;BME280;61288;53.446;-2.266;2022-11-15T06:44:18;99056.00;;;9.45;93.93
73101;BME280;61288;53.446;-2.266;2022-11-15T06:46:44;99050.72;;;9.47;94.24
73101;BME280;61288;53.446;-2.266;2022-11-15T06:49:09;99040.28;;;9.48;94.32
73101;BME280;61288;53.446;-2.266;2022-11-15T06:51:35;99041.09;;;9.49;94.46
73101;BME280;61288;53.446;-2.266;2022-11-15T06:54:01;99047.13;;;9.49;94.69
73101;BME280;61288;53.446;-2.266;2022-11-15T06:56:26;99031.69;;;9.48;95.06
73101;BME280;61288;53.446;-2.266;2022-11-15T06:58:52;99036.97;;;9.46;95.51
73101;BME280;61288;53.446;-2.266;2022-11-15T07:01:18;99032.88;;;9.42;95.47
73101;BME280;61288;53.446;-2.266;2022-11-15T07:03:43;99022.66;;;9.41;95.80
73101;BME280;61288;53.446;-2.266;2022-11-15T07:06:10;99017.78;;;9.36;96.28
73101;BME280;61288;53.446;-2.266;2022-11-15T07:08:36;99017.97;;;9.33;96.49
73101;BME280;61288;53.446;-2.266;2022-11-15T07:11:04;99008.56;;;9.32;96.55
73101;BME280;61288;53.446;-2.266;2022-11-15T07:13:31;99012.91;;;9.31;96.47
73101;BME280;61288;53.446;-2.266;2022-11-15T07:16:05;99003.50;;;9.30;96.81
73101;BME280;61288;53.446;-2.266;2022-11-15T07:18:34;98999.25;;;9.29;97.03
73101;BME280;61288;53.446;-2.266;2022-11-15T07:21:02;99007.16;;;9.26;97.73
73101;BME280;61288;53.446;-2.266;2022-11-15T07:23:28;99002.13;;;9.24;97.56
73101;BME280;61288;53.446;-2.266;2022-11-15T07:25:56;98994.56;;;9.21;97.85
73101;BME280;61288;53.446;-2.266;2022-11-15T07:28:23;98997.94;;;9.22;98.39
73101;BME280;61288;53.446;-2.266;2022-11-15T07:30:49;99000.72;;;9.19;98.91
73101;BME280;61288;53.446;-2.266;2022-11-15T07:33:14;98991.31;;;9.18;98.96
73101;BME280;61288;53.446;-2.266;2022-11-15T07:35:40;98992.25;;;9.17;98.65
73101;BME280;61288;53.446;-2.266;2022-11-15T07:38:05;98996.59;;;9.16;99.20
73101;BME280;61288;53.446;-2.266;2022-11-15T07:40:32;98985.53;;;9.14;99.62
73101;BME280;61288;53.446;-2.266;2022-11-15T07:43:02;98985.63;;;9.13;99.99
73101;BME280;61288;53.446;-2.266;2022-11-15T07:45:29;98980.44;;;9.13;100.00
73101;BME280;61288;53.446;-2.266;2022-11-15T07:47:55;98984.69;;;9.14;100.00
73101;BME280;61288;53.446;-2.266;2022-11-15T07:50:22;98986.47;;;9.13;100.00
73101;BME280;61288;53.446;-2.266;2022-11-15T07:52:53;98987.38;;;9.12;100.00
73101;BME280;61288;53.446;-2.266;2022-11-15T07:55:19;98985.63;;;9.13;100.00
73101;BME280;61288;53.446;-2.266;2022-11-15T07:57:44;98985.63;;;9.13;100.00
73101;BME280;61288;53.446;-2.266;2022-11-15T08:00:10;98982.22;;;9.12;100.00
73101;BME280;61288;53.446;-2.266;2022-11-15T08:02:36;98983.88;;;9.13;100.00
73101;BME280;61288;53.446;-2.266;2022-11-15T08:05:02;98981.38;;;9.12;100.00
73101;BME280;61288;53.446;-2.266;2022-11-15T08:07:31;98976.19;;;9.12;100.00
73101;BME280;61288;53.446;-2.266;2022-11-15T08:09:57;98965.88;;;9.12;100.00
73101;BME280;61288;53.446;-2.266;2022-11-15T08:12:23;98978.78;;;9.12;100.00
73101;BME280;61288;53.446;-2.266;2022-11-15T08:14:49;98977.06;;;9.12;100.00
73101;BME280;61288;53.446;-2.266;2022-11-15T08:17:15;98963.28;;;9.12;100.00
73101;BME280;61288;53.446;-2.266;2022-11-15T08:19:40;98967.53;;;9.13;100.00
73101;BME280;61288;53.446;-2.266;2022-11-15T08:22:07;98960.50;;;9.15;100.00
73101;BME280;61288;53.446;-2.266;2022-11-15T08:24:35;98956.06;;;9.17;100.00
73101;BME280;61288;53.446;-2.266;2022-11-15T08:27:01;98957.72;;;9.18;100.00
73101;BME280;61288;53.446;-2.266;2022-11-15T08:29:27;98954.22;;;9.19;100.00
73101;BME280;61288;53.446;-2.266;2022-11-15T08:31:55;98950.72;;;9.20;100.00
73101;BME280;61288;53.446;-2.266;2022-11-15T08:34:21;98936.03;;;9.20;100.00
73101;BME280;61288;53.446;-2.266;2022-11-15T08:36:47;98941.94;;;9.22;100.00
73101;BME280;61288;53.446;-2.266;2022-11-15T08:39:13;98937.50;;;9.24;100.00
73101;BME280;61288;53.446;-2.266;2022-11-15T08:41:39;98942.47;;;9.28;100.00
73101;BME280;61288;53.446;-2.266;2022-11-15T08:44:05;98926.03;;;9.29;100.00
73101;BME280;61288;53.446;-2.266;2022-11-15T08:46:30;98919.13;;;9.29;100.00
73101;BME280;61288;53.446;-2.266;2022-11-15T08:48:59;98916.44;;;9.31;100.00
73101;BME280;61288;53.446;-2.266;2022-11-15T08:51:24;98915.50;;;9.32;100.00
73101;BME280;61288;53.446;-2.266;2022-11-15T08:53:50;98897.41;;;9.32;100.00
73101;BME280;61288;53.446;-2.266;2022-11-15T08:56:16;98895.56;;;9.34;100.00
73101;BME280;61288;53.446;-2.266;2022-11-15T08:58:41;98885.94;;;9.36;100.00
73101;BME280;61288;53.446;-2.266;2022-11-15T09:01:15;98880.56;;;9.39;100.00
73101;BME280;61288;53.446;-2.266;2022-11-15T09:03:42;98883.88;;;9.41;100.00
73101;BME280;61288;53.446;-2.266;2022-11-15T09:06:08;98864.03;;;9.42;100.00
73101;BME280;61288;53.446;-2.266;2022-11-15T09:08:34;98864.69;;;9.45;100.00
73101;BME280;61288;53.446;-2.266;2022-11-15T09:11:03;98852.47;;;9.47;100.00
73101;BME280;61288;53.446;-2.266;2022-11-15T09:13:28;98850.63;;;9.49;100.00
73101;BME280;61288;53.446;-2.266;2022-11-15T09:15:57;98852.28;;;9.50;100.00
73101;BME280;61288;53.446;-2.266;2022-11-15T09:18:24;98840.16;;;9.51;100.00
73101;BME280;61288;53.446;-2.266;2022-11-15T09:20:49;98841.81;;;9.52;100.00
73101;BME280;61288;53.446;-2.266;2022-11-15T09:23:15;98835.72;;;9.53;100.00
73101;BME280;61288;53.446;-2.266;2022-11-15T09:25:40;98837.28;;;9.56;100.00
73101;BME280;61288;53.446;-2.266;2022-11-15T09:28:07;98826.00;;;9.57;100.00
73101;BME280;61288;53.446;-2.266;2022-11-15T09:30:32;98823.44;;;9.57;100.00
73101;BME280;61288;53.446;-2.266;2022-11-15T09:32:58;98823.22;;;9.60;100.00
73101;BME280;61288;53.446;-2.266;2022-11-15T09:35:24;98821.44;;;9.60;100.00
73101;BME280;61288;53.446;-2.266;2022-11-15T09:37:50;98807.63;;;9.61;100.00
73101;BME280;61288;53.446;-2.266;2022-11-15T09:40:17;98799.94;;;9.60;100.00
73101;BME280;61288;53.446;-2.266;2022-11-15T09:45:36;98798.19;;;9.60;100.00
73101;BME280;61288;53.446;-2.266;2022-11-15T09:50:54;98783.59;;;9.59;100.00
73101;BME280;61288;53.446;-2.266;2022-11-15T09:53:57;98787.97;;;9.59;100.00
73101;BME280;61288;53.446;-2.266;2022-11-15T09:56:26;98784.44;;;9.60;100.00
73101;BME280;61288;53.446;-2.266;2022-11-15T10:04:23;98774.91;;;9.60;100.00
73101;BME280;61288;53.446;-2.266;2022-11-15T10:09:43;98772.31;;;9.60;100.00
73101;BME280;61288;53.446;-2.266;2022-11-15T10:12:13;98774.81;;;9.62;100.00
73101;BME280;61288;53.446;-2.266;2022-11-15T10:14:40;98776.59;;;9.61;100.00
73101;BME280;61288;53.446;-2.266;2022-11-15T10:17:28;98764.56;;;9.60;100.00
73101;BME280;61288;53.446;-2.266;2022-11-15T10:23:05;98759.31;;;9.62;100.00
73101;BME280;61288;53.446;-2.266;2022-11-15T10:25:32;98754.84;;;9.64;100.00
73101;BME280;61288;53.446;-2.266;2022-11-15T10:28:03;98759.22;;;9.63;100.00
73101;BME280;61288;53.446;-2.266;2022-11-15T10:30:37;98752.25;;;9.64;100.00
73101;BME280;61288;53.446;-2.266;2022-11-15T10:33:37;98749.59;;;9.65;100.00
73101;BME280;61288;53.446;-2.266;2022-11-15T10:41:20;98737.25;;;9.69;100.00
73101;BME280;61288;53.446;-2.266;2022-11-15T10:46:34;98723.31;;;9.72;100.00
73101;BME280;61288;53.446;-2.266;2022-11-15T10:49:23;98723.19;;;9.73;100.00
73101;BME280;61288;53.446;-2.266;2022-11-15T10:52:16;98725.56;;;9.76;100.00
73101;BME280;61288;53.446;-2.266;2022-11-15T10:57:37;98712.44;;;9.79;100.00
73101;BME280;61288;53.446;-2.266;2022-11-15T11:05:31;98700.94;;;9.83;100.00
73101;BME280;61288;53.446;-2.266;2022-11-15T11:08:22;98693.19;;;9.83;100.00
73101;BME280;61288;53.446;-2.266;2022-11-15T11:10:53;98691.31;;;9.86;100.00
73101;BME280;61288;53.446;-2.266;2022-11-15T11:13:34;98688.59;;;9.87;100.00
73101;BME280;61288;53.446;-2.266;2022-11-15T11:18:52;98674.72;;;9.88;100.00
73101;BME280;61288;53.446;-2.266;2022-11-15T11:37:37;98644.09;;;9.95;100.00
73101;BME280;61288;53.446;-2.266;2022-11-15T11:41:10;98649.16;;;9.96;100.00
73101;BME280;61288;53.446;-2.266;2022-11-15T11:46:49;98649.97;;;9.97;100.00
73101;BME280;61288;53.446;-2.266;2022-11-15T11:48:48;98652.47;;;9.99;100.00
73101;BME280;61288;53.446;-2.266;2022-11-15T11:51:24;98645.53;;;9.99;100.00
73101;BME280;61288;53.446;-2.266;2022-11-15T11:54:14;98652.34;;;10.00;100.00
73101;BME280;61288;53.446;-2.266;2022-11-15T11:56:44;98636.72;;;10.02;100.00
73101;BME280;61288;53.446;-2.266;2022-11-15T11:59:28;98630.47;;;10.04;100.00
73101;BME280;61288;53.446;-2.266;2022-11-15T12:02:01;98632.03;;;10.07;100.00
73101;BME280;61288;53.446;-2.266;2022-11-15T12:04:36;98631.81;;;10.10;100.00
73101;BME280;61288;53.446;-2.266;2022-11-15T12:07:08;98628.06;;;10.14;100.00
73101;BME280;61288;53.446;-2.266;2022-11-15T12:09:42;98621.88;;;10.17;100.00
73101;BME280;61288;53.446;-2.266;2022-11-15T12:17:18;98635.28;;;10.22;100.00
73101;BME280;61288;53.446;-2.266;2022-11-15T12:19:46;98631.75;;;10.23;100.00
73101;BME280;61288;53.446;-2.266;2022-11-15T12:25:03;98626.59;;;10.23;100.00
73101;BME280;61288;53.446;-2.266;2022-11-15T12:30:04;98616.34;;;10.21;100.00
73101;BME280;61288;53.446;-2.266;2022-11-15T12:32:37;98613.88;;;10.20;100.00
73101;BME280;61288;53.446;-2.266;2022-11-15T12:35:23;98619.84;;;10.20;100.00
73101;BME280;61288;53.446;-2.266;2022-11-15T12:37:51;98612.09;;;10.20;100.00
73101;BME280;61288;53.446;-2.266;2022-11-15T12:42:59;98614.69;;;10.20;100.00
73101;BME280;61288;53.446;-2.266;2022-11-15T12:45:29;98613.75;;;10.21;100.00
73101;BME280;61288;53.446;-2.266;2022-11-15T12:58:38;98632.81;;;9.96;100.00
73101;BME280;61288;53.446;-2.266;2022-11-15T13:01:09;98625.00;;;9.85;100.00
73101;BME280;61288;53.446;-2.266;2022-11-15T13:03:36;98618.00;;;9.74;100.00
73101;BME280;61288;53.446;-2.266;2022-11-15T13:06:40;98627.84;;;9.68;100.00
73101;BME280;61288;53.446;-2.266;2022-11-15T13:11:55;98611.69;;;9.65;100.00
73101;BME280;61288;53.446;-2.266;2022-11-15T13:17:33;98624.94;;;9.60;100.00
73101;BME280;61288;53.446;-2.266;2022-11-15T13:22:47;98621.78;;;9.44;100.00
73101;BME280;61288;53.446;-2.266;2022-11-15T13:25:48;98617.56;;;9.30;100.00
73101;BME280;61288;53.446;-2.266;2022-11-15T13:28:20;98642.06;;;9.24;100.00
73101;BME280;61288;53.446;-2.266;2022-11-15T13:33:17;98636.88;;;9.11;100.00
73101;BME280;61288;53.446;-2.266;2022-11-15T13:35:46;98642.25;;;9.08;100.00
73101;BME280;61288;53.446;-2.266;2022-11-15T13:38:33;98645.28;;;9.02;100.00
73101;BME280;61288;53.446;-2.266;2022-11-15T13:41:20;98649.63;;;9.01;100.00
73101;BME280;61288;53.446;-2.266;2022-11-15T13:43:48;98643.81;;;8.98;100.00
73101;BME280;61288;53.446;-2.266;2022-11-15T13:46:31;98650.94;;;8.94;100.00
73101;BME280;61288;53.446;-2.266;2022-11-15T13:49:03;98647.75;;;8.90;100.00
73101;BME280;61288;53.446;-2.266;2022-11-15T13:57:00;98640.31;;;8.86;100.00
73101;BME280;61288;53.446;-2.266;2022-11-15T13:59:29;98639.50;;;8.85;100.00
73101;BME280;61288;53.446;-2.266;2022-11-15T14:01:59;98643.00;;;8.84;100.00
73101;BME280;61288;53.446;-2.266;2022-11-15T14:04:27;98643.00;;;8.84;100.00
73101;BME280;61288;53.446;-2.266;2022-11-15T14:07:01;98644.03;;;8.81;100.00
73101;BME280;61288;53.446;-2.266;2022-11-15T14:12:01;98654.34;;;8.81;100.00
73101;BME280;61288;53.446;-2.266;2022-11-15T14:14:29;98650.31;;;8.77;100.00
73101;BME280;61288;53.446;-2.266;2022-11-15T14:16:59;98646.91;;;8.77;100.00
73101;BME280;61288;53.446;-2.266;2022-11-15T14:22:24;98646.50;;;8.83;100.00
73101;BME280;61288;53.446;-2.266;2022-11-15T14:25:18;98645.16;;;8.77;100.00
73101;BME280;61288;53.446;-2.266;2022-11-15T14:28:11;98652.38;;;8.72;100.00
73101;BME280;61288;53.446;-2.266;2022-11-15T14:30:42;98652.78;;;8.66;100.00
73101;BME280;61288;53.446;-2.266;2022-11-15T14:35:53;98647.47;;;8.55;100.00
73101;BME280;61288;53.446;-2.266;2022-11-15T14:38:21;98652.03;;;8.51;100.00
73101;BME280;61288;53.446;-2.266;2022-11-15T14:40:48;98657.53;;;8.45;100.00
73101;BME280;61288;53.446;-2.266;2022-11-15T14:43:14;98656.94;;;8.41;100.00
73101;BME280;61288;53.446;-2.266;2022-11-15T14:45:40;98661.38;;;8.39;100.00
73101;BME280;61288;53.446;-2.266;2022-11-15T14:48:06;98657.13;;;8.38;100.00
73101;BME280;61288;53.446;-2.266;2022-11-15T14:50:32;98659.72;;;8.38;100.00
73101;BME280;61288;53.446;-2.266;2022-11-15T14:52:59;98667.00;;;8.31;100.00
73101;BME280;61288;53.446;-2.266;2022-11-15T14:55:30;98667.41;;;8.25;100.00
73101;BME280;61288;53.446;-2.266;2022-11-15T14:57:58;98669.66;;;8.17;100.00
73101;BME280;61288;53.446;-2.266;2022-11-15T15:00:23;98674.09;;;8.15;100.00
73101;BME280;61288;53.446;-2.266;2022-11-15T15:02:52;98680.06;;;8.15;100.00
73101;BME280;61288;53.446;-2.266;2022-11-15T15:05:22;98682.75;;;8.14;100.00
73101;BME280;61288;53.446;-2.266;2022-11-15T15:07:49;98687.06;;;8.13;100.00
73101;BME280;61288;53.446;-2.266;2022-11-15T15:10:16;98689.44;;;8.16;100.00
73101;BME280;61288;53.446;-2.266;2022-11-15T15:12:42;98685.13;;;8.17;100.00
73101;BME280;61288;53.446;-2.266;2022-11-15T15:15:21;98684.22;;;8.18;100.00
73101;BME280;61288;53.446;-2.266;2022-11-15T15:17:48;98691.75;;;8.21;100.00
73101;BME280;61288;53.446;-2.266;2022-11-15T15:20:14;98689.06;;;8.22;100.00
73101;BME280;61288;53.446;-2.266;2022-11-15T15:22:44;98695.13;;;8.21;100.00
73101;BME280;61288;53.446;-2.266;2022-11-15T15:25:30;98694.13;;;8.24;100.00
73101;BME280;61288;53.446;-2.266;2022-11-15T15:27:57;98697.53;;;8.24;100.00